sensor_id;sensor_type;location;lat;lon;timestamp;pressure;altitude;pressure_sealevel;temperature;humidity
30636;BME280;17400;52.392;9.750;2023-02-03T00:00:08;101372.69;;;7.33;100.00
30636;BME280;17400;52.392;9.750;2023-02-03T00:02:36;101377.91;;;7.34;100.00
30636;BME280;17400;52.392;9.750;2023-02-03T00:05:04;101381.44;;;7.35;100.00
30636;BME280;17400;52.392;9.750;2023-02-03T00:07:32;101363.44;;;7.36;100.00
30636;BME280;17400;52.392;9.750;2023-02-03T00:10:01;101355.19;;;7.37;100.00
30636;BME280;17400;52.392;9.750;2023-02-03T00:12:30;101353.16;;;7.39;100.00
30636;BME280;17400;52.392;9.750;2023-02-03T00:14:59;101354.50;;;7.35;100.00
30636;BME280;17400;52.392;9.750;2023-02-03T00:17:27;101354.31;;;7.37;100.00
30636;BME280;17400;52.392;9.750;2023-02-03T00:19:55;101348.94;;;7.37;100.00
30636;BME280;17400;52.392;9.750;2023-02-03T00:22:22;101342.56;;;7.38;100.00
30636;BME280;17400;52.392;9.750;2023-02-03T00:24:50;101332.47;;;7.40;100.00
30636;BME280;17400;52.392;9.750;2023-02-03T00:27:18;101328.91;;;7.39;100.00
30636;BME280;17400;52.392;9.750;2023-02-03T00:29:45;101330.44;;;7.42;100.00
30636;BME280;17400;52.392;9.750;2023-02-03T00:32:17;101324.91;;;7.43;100.00
30636;BME280;17400;52.392;9.750;2023-02-03T00:34:45;101344.63;;;7.44;100.00
30636;BME280;17400;52.392;9.750;2023-02-03T00:37:14;101344.44;;;7.45;100.00
30636;BME280;17400;52.392;9.750;2023-02-03T00:39:42;101331.66;;;7.47;100.00
30636;BME280;17400;52.392;9.750;2023-02-03T00:42:10;101339.72;;;7.47;100.00
30636;BME280;17400;52.392;9.750;2023-02-03T00:44:37;101335.19;;;7.48;100.00
30636;BME280;17400;52.392;9.750;2023-02-03T00:47:05;101335.19;;;7.48;100.00
30636;BME280;17400;52.392;9.750;2023-02-03T00:49:34;101335.53;;;7.45;100.00
30636;BME280;17400;52.392;9.750;2023-02-03T00:52:02;101326.94;;;7.49;100.00
30636;BME280;17400;52.392;9.750;2023-02-03T00:54:30;101328.31;;;7.54;100.00
30636;BME280;17400;52.392;9.750;2023-02-03T00:56:59;101322.63;;;7.57;100.00
30636;BME280;17400;52.392;9.750;2023-02-03T00:59:27;101332.19;;;7.59;100.00
30636;BME280;17400;52.392;9.750;2023-02-03T01:01:54;101321.41;;;7.59;100.00
30636;BME280;17400;52.392;9.750;2023-02-03T01:04:22;101312.19;;;7.62;100.00
30636;BME280;17400;52.392;9.750;2023-02-03T01:06:51;101305.78;;;7.63;100.00
30636;BME280;17400;52.392;9.750;2023-02-03T01:09:21;101293.31;;;7.62;100.00
30636;BME280;17400;52.392;9.750;2023-02-03T01:11:49;101304.09;;;7.62;100.00
30636;BME280;17400;52.392;9.750;2023-02-03T01:14:17;101315.56;;;7.64;100.00
30636;BME280;17400;52.392;9.750;2023-02-03T01:16:44;101315.22;;;7.67;100.00
30636;BME280;17400;52.392;9.750;2023-02-03T01:19:12;101319.94;;;7.65;100.00
30636;BME280;17400;52.392;9.750;2023-02-03T01:21:40;101333.44;;;7.65;100.00
30636;BME280;17400;52.392;9.750;2023-02-03T01:24:10;101327.88;;;7.66;100.00
30636;BME280;17400;52.392;9.750;2023-02-03T01:26:40;101334.75;;;7.61;100.00
30636;BME280;17400;52.392;9.750;2023-02-03T01:29:08;101331.91;;;7.62;100.00
30636;BME280;17400;52.392;9.750;2023-02-03T01:31:37;101330.72;;;7.65;100.00
30636;BME280;17400;52.392;9.750;2023-02-03T01:34:11;101332.56;;;7.64;100.00
30636;BME280;17400;52.392;9.750;2023-02-03T01:36:39;101327.16;;;7.64;100.00
30636;BME280;17400;52.392;9.750;2023-02-03T01:39:09;101333.44;;;7.65;100.00
30636;BME280;17400;52.392;9.750;2023-02-03T01:41:38;101325.50;;;7.63;100.00
30636;BME280;17400;52.392;9.750;2023-02-03T01:44:37;101318.94;;;7.66;100.00
30636;BME280;17400;52.392;9.750;2023-02-03T01:49:57;101330.41;;;7.68;100.00
30636;BME280;17400;52.392;9.750;2023-02-03T01:52:26;101303.63;;;7.66;100.00
30636;BME280;17400;52.392;9.750;2023-02-03T01:54:59;101290.66;;;7.70;100.00
30636;BME280;17400;52.392;9.750;2023-02-03T01:57:30;101303.09;;;7.71;100.00
30636;BME280;17400;52.392;9.750;2023-02-03T02:00:04;101292.50;;;7.70;100.00
30636;BME280;17400;52.392;9.750;2023-02-03T02:02:35;101282.59;;;7.70;100.00
30636;BME280;17400;52.392;9.750;2023-02-03T02:05:05;101281.25;;;7.74;100.00
30636;BME280;17400;52.392;9.750;2023-02-03T02:07:34;101277.19;;;7.70;100.00
30636;BME280;17400;52.392;9.750;2023-02-03T02:10:06;101264.53;;;7.71;100.00
30636;BME280;17400;52.392;9.750;2023-02-03T02:12:34;101251.06;;;7.71;100.00
30636;BME280;17400;52.392;9.750;2023-02-03T02:15:02;101240.97;;;7.73;100.00
30636;BME280;17400;52.392;9.750;2023-02-03T02:17:40;101250.91;;;7.72;100.00
30636;BME280;17400;52.392;9.750;2023-02-03T02:20:32;101246.03;;;7.76;100.00
30636;BME280;17400;52.392;9.750;2023-02-03T02:23:29;101248.38;;;7.71;100.00
30636;BME280;17400;52.392;9.750;2023-02-03T02:26:18;101221.59;;;7.69;100.00
30636;BME280;17400;52.392;9.750;2023-02-03T02:29:07;101214.03;;;7.73;100.00
30636;BME280;17400;52.392;9.750;2023-02-03T02:31:47;101212.50;;;7.70;100.00
30636;BME280;17400;52.392;9.750;2023-02-03T02:34:24;101215.38;;;7.77;100.00
30636;BME280;17400;52.392;9.750;2023-02-03T02:37:04;101216.38;;;7.76;100.00
30636;BME280;17400;52.392;9.750;2023-02-03T02:39:38;101228.84;;;7.77;100.00
30636;BME280;17400;52.392;9.750;2023-02-03T02:42:14;101221.94;;;7.74;100.00
30636;BME280;17400;52.392;9.750;2023-02-03T02:44:48;101225.81;;;7.80;100.00
30636;BME280;17400;52.392;9.750;2023-02-03T02:47:21;101215.72;;;7.82;100.00
30636;BME280;17400;52.392;9.750;2023-02-03T02:49:57;101219.59;;;7.79;100.00
30636;BME280;17400;52.392;9.750;2023-02-03T02:52:30;101208.81;;;7.79;100.00
30636;BME280;17400;52.392;9.750;2023-02-03T02:55:02;101207.47;;;7.83;100.00
30636;BME280;17400;52.392;9.750;2023-02-03T02:57:34;101193.13;;;7.83;100.00
30636;BME280;17400;52.392;9.750;2023-02-03T03:00:03;101185.75;;;7.85;100.00
30636;BME280;17400;52.392;9.750;2023-02-03T03:02:33;101184.56;;;7.88;100.00
30636;BME280;17400;52.392;9.750;2023-02-03T03:05:02;101186.91;;;7.82;100.00
30636;BME280;17400;52.392;9.750;2023-02-03T03:07:33;101194.66;;;7.86;100.00
30636;BME280;17400;52.392;9.750;2023-02-03T03:10:07;101199.38;;;7.83;100.00
30636;BME280;17400;52.392;9.750;2023-02-03T03:12:41;101199.03;;;7.87;100.00
30636;BME280;17400;52.392;9.750;2023-02-03T03:15:17;101199.88;;;7.87;100.00
30636;BME280;17400;52.392;9.750;2023-02-03T03:17:53;101220.59;;;7.87;100.00
30636;BME280;17400;52.392;9.750;2023-02-03T03:20:24;101217.41;;;7.83;100.00
30636;BME280;17400;52.392;9.750;2023-02-03T03:22:58;101211.88;;;7.84;100.00
30636;BME280;17400;52.392;9.750;2023-02-03T03:25:33;101201.06;;;7.84;100.00
30636;BME280;17400;52.392;9.750;2023-02-03T03:28:06;101193.66;;;7.87;100.00
30636;BME280;17400;52.392;9.750;2023-02-03T03:30:38;101206.47;;;7.84;100.00
30636;BME280;17400;52.392;9.750;2023-02-03T03:33:08;101186.41;;;7.87;100.00
30636;BME280;17400;52.392;9.750;2023-02-03T03:35:38;101171.25;;;7.86;100.00
30636;BME280;17400;52.392;9.750;2023-02-03T03:38:15;101173.78;;;7.88;100.00
30636;BME280;17400;52.392;9.750;2023-02-03T03:40:49;101166.53;;;7.88;100.00
30636;BME280;17400;52.392;9.750;2023-02-03T03:43:20;101177.81;;;7.92;100.00
30636;BME280;17400;52.392;9.750;2023-02-03T03:45:52;101167.03;;;7.92;100.00
30636;BME280;17400;52.392;9.750;2023-02-03T03:48:27;101158.47;;;7.96;100.00
30636;BME280;17400;52.392;9.750;2023-02-03T03:51:03;101151.53;;;7.94;100.00
30636;BME280;17400;52.392;9.750;2023-02-03T03:53:35;101154.25;;;7.94;100.00
30636;BME280;17400;52.392;9.750;2023-02-03T03:56:07;101158.94;;;7.92;100.00
30636;BME280;17400;52.392;9.750;2023-02-03T03:58:41;101150.53;;;7.87;100.00
30636;BME280;17400;52.392;9.750;2023-02-03T04:01:12;101145.47;;;7.92;100.00
30636;BME280;17400;52.392;9.750;2023-02-03T04:03:45;101158.78;;;7.93;100.00
30636;BME280;17400;52.392;9.750;2023-02-03T04:06:14;101145.47;;;7.92;100.00
30636;BME280;17400;52.392;9.750;2023-02-03T04:08:42;101139.91;;;7.93;100.00
30636;BME280;17400;52.392;9.750;2023-02-03T04:11:10;101136.03;;;7.96;100.00
30636;BME280;17400;52.392;9.750;2023-02-03T04:13:57;101125.94;;;7.98;100.00
30636;BME280;17400;52.392;9.750;2023-02-03T04:16:25;101133.34;;;7.96;100.00
30636;BME280;17400;52.392;9.750;2023-02-03T04:18:54;101143.28;;;7.95;100.00
30636;BME280;17400;52.392;9.750;2023-02-03T04:21:22;101132.50;;;7.95;100.00
30636;BME280;17400;52.392;9.750;2023-02-03T04:23:50;101124.91;;;7.91;100.00
30636;BME280;17400;52.392;9.750;2023-02-03T04:26:17;101131.63;;;7.95;100.00
30636;BME280;17400;52.392;9.750;2023-02-03T04:28:45;101139.72;;;7.95;100.00
30636;BME280;17400;52.392;9.750;2023-02-03T04:31:14;101130.63;;;7.96;100.00
30636;BME280;17400;52.392;9.750;2023-02-03T04:33:42;101129.63;;;7.97;100.00
30636;BME280;17400;52.392;9.750;2023-02-03T04:36:11;101136.38;;;8.01;100.00
30636;BME280;17400;52.392;9.750;2023-02-03T04:38:39;101133.50;;;8.03;100.00
30636;BME280;17400;52.392;9.750;2023-02-03T04:41:06;101123.88;;;8.00;100.00
30636;BME280;17400;52.392;9.750;2023-02-03T04:43:34;101139.06;;;8.01;100.00
30636;BME280;17400;52.392;9.750;2023-02-03T04:46:02;101125.56;;;8.01;100.00
30636;BME280;17400;52.392;9.750;2023-02-03T04:48:30;101133.84;;;7.99;100.00
30636;BME280;17400;52.392;9.750;2023-02-03T04:51:00;101127.44;;;8.00;100.00
30636;BME280;17400;52.392;9.750;2023-02-03T04:53:30;101124.25;;;7.97;100.00
30636;BME280;17400;52.392;9.750;2023-02-03T04:55:58;101116.50;;;7.94;100.00
30636;BME280;17400;52.392;9.750;2023-02-03T04:58:26;101118.66;;;7.98;100.00
30636;BME280;17400;52.392;9.750;2023-02-03T05:00:54;101104.53;;;7.96;100.00
30636;BME280;17400;52.392;9.750;2023-02-03T05:03:22;101107.06;;;7.98;100.00
30636;BME280;17400;52.392;9.750;2023-02-03T05:05:55;101099.28;;;7.95;100.00
30636;BME280;17400;52.392;9.750;2023-02-03T05:08:23;101098.97;;;7.98;100.00
30636;BME280;17400;52.392;9.750;2023-02-03T05:10:52;101103.50;;;7.97;100.00
30636;BME280;17400;52.392;9.750;2023-02-03T05:13:21;101094.91;;;8.02;100.00
30636;BME280;17400;52.392;9.750;2023-02-03T05:15:48;101078.06;;;8.00;100.00
30636;BME280;17400;52.392;9.750;2023-02-03T05:18:16;101081.75;;;7.99;100.00
30636;BME280;17400;52.392;9.750;2023-02-03T05:20:44;101084.63;;;7.97;100.00
30636;BME280;17400;52.392;9.750;2023-02-03T05:23:15;101076.03;;;8.02;100.00
30636;BME280;17400;52.392;9.750;2023-02-03T05:25:44;101066.94;;;8.03;100.00
30636;BME280;17400;52.392;9.750;2023-02-03T05:28:13;101065.91;;;8.04;100.00
30636;BME280;17400;52.392;9.750;2023-02-03T05:30:44;101073.00;;;8.05;100.00
30636;BME280;17400;52.392;9.750;2023-02-03T05:33:12;101061.38;;;8.05;100.00
30636;BME280;17400;52.392;9.750;2023-02-03T05:35:40;101062.03;;;8.07;100.00
30636;BME280;17400;52.392;9.750;2023-02-03T05:38:08;101073.34;;;8.02;100.00
30636;BME280;17400;52.392;9.750;2023-02-03T05:40:37;101065.91;;;8.04;100.00
30636;BME280;17400;52.392;9.750;2023-02-03T05:43:24;101059.50;;;8.05;100.00
30636;BME280;17400;52.392;9.750;2023-02-03T05:45:52;101050.25;;;8.08;100.00
30636;BME280;17400;52.392;9.750;2023-02-03T05:48:20;101057.00;;;8.04;100.00
30636;BME280;17400;52.392;9.750;2023-02-03T05:50:48;101042.97;;;8.08;100.00
30636;BME280;17400;52.392;9.750;2023-02-03T05:53:16;101063.22;;;8.04;100.00
30636;BME280;17400;52.392;9.750;2023-02-03T05:55:44;101058.00;;;8.03;100.00
30636;BME280;17400;52.392;9.750;2023-02-03T05:58:11;101048.38;;;8.08;100.00
30636;BME280;17400;52.392;9.750;2023-02-03T06:00:40;101060.53;;;8.04;100.00
30636;BME280;17400;52.392;9.750;2023-02-03T06:03:08;101052.94;;;8.08;100.00
30636;BME280;17400;52.392;9.750;2023-02-03T06:05:36;101062.22;;;8.05;100.00
30636;BME280;17400;52.392;9.750;2023-02-03T06:08:07;101075.03;;;7.95;100.00
30636;BME280;17400;52.392;9.750;2023-02-03T06:10:37;101067.28;;;7.92;100.00
30636;BME280;17400;52.392;9.750;2023-02-03T06:13:09;101072.00;;;7.98;100.00
30636;BME280;17400;52.392;9.750;2023-02-03T06:15:38;101068.59;;;8.04;100.00
30636;BME280;17400;52.392;9.750;2023-02-03T06:18:07;101062.06;;;7.98;100.00
30636;BME280;17400;52.392;9.750;2023-02-03T06:20:36;101070.50;;;7.95;100.00
30636;BME280;17400;52.392;9.750;2023-02-03T06:23:04;101069.63;;;7.95;100.00
30636;BME280;17400;52.392;9.750;2023-02-03T06:25:31;101082.47;;;7.93;100.00
30636;BME280;17400;52.392;9.750;2023-02-03T06:27:59;101081.59;;;7.92;100.00
30636;BME280;17400;52.392;9.750;2023-02-03T06:30:29;101069.50;;;7.96;100.00
30636;BME280;17400;52.392;9.750;2023-02-03T06:32:59;101067.44;;;7.98;100.00
30636;BME280;17400;52.392;9.750;2023-02-03T06:35:28;101063.59;;;7.93;100.00
30636;BME280;17400;52.392;9.750;2023-02-03T06:37:55;101076.75;;;7.88;100.00
30636;BME280;17400;52.392;9.750;2023-02-03T06:40:23;101071.69;;;7.93;100.00
30636;BME280;17400;52.392;9.750;2023-02-03T06:42:52;101066.28;;;7.93;100.00
30636;BME280;17400;52.392;9.750;2023-02-03T06:45:23;101060.22;;;7.91;100.00
30636;BME280;17400;52.392;9.750;2023-02-03T06:47:53;101070.69;;;7.77;100.00
30636;BME280;17400;52.392;9.750;2023-02-03T06:50:21;101073.38;;;7.77;100.00
30636;BME280;17400;52.392;9.750;2023-02-03T06:52:50;101051.31;;;7.82;100.00
30636;BME280;17400;52.392;9.750;2023-02-03T06:55:18;101053.50;;;7.78;100.00
30636;BME280;17400;52.392;9.750;2023-02-03T06:57:47;101056.53;;;7.75;100.00
30636;BME280;17400;52.392;9.750;2023-02-03T07:00:16;101050.28;;;7.75;100.00
30636;BME280;17400;52.392;9.750;2023-02-03T07:02:45;101041.03;;;7.77;100.00
30636;BME280;17400;52.392;9.750;2023-02-03T07:05:20;101033.63;;;7.79;100.00
30636;BME280;17400;52.392;9.750;2023-02-03T07:07:50;101048.09;;;7.78;100.00
30636;BME280;17400;52.392;9.750;2023-02-03T07:10:20;101046.25;;;7.79;100.00
30636;BME280;17400;52.392;9.750;2023-02-03T07:12:48;101039.16;;;7.78;100.00
30636;BME280;17400;52.392;9.750;2023-02-03T07:15:17;101041.53;;;7.81;100.00
30636;BME280;17400;52.392;9.750;2023-02-03T07:17:46;101052.97;;;7.83;100.00
30636;BME280;17400;52.392;9.750;2023-02-03T07:20:21;101045.59;;;7.77;100.00
30636;BME280;17400;52.392;9.750;2023-02-03T07:22:55;101037.69;;;7.75;100.00
30636;BME280;17400;52.392;9.750;2023-02-03T07:25:24;101035.81;;;7.76;100.00
30636;BME280;17400;52.392;9.750;2023-02-03T07:27:52;101042.22;;;7.75;100.00
30636;BME280;17400;52.392;9.750;2023-02-03T07:30:20;101028.72;;;7.75;100.00
30636;BME280;17400;52.392;9.750;2023-02-03T07:32:48;101023.31;;;7.83;100.00
30636;BME280;17400;52.392;9.750;2023-02-03T07:35:16;101033.25;;;7.91;100.00
30636;BME280;17400;52.392;9.750;2023-02-03T07:37:44;101018.59;;;7.93;100.00
30636;BME280;17400;52.392;9.750;2023-02-03T07:40:13;101008.66;;;7.94;100.00
30636;BME280;17400;52.392;9.750;2023-02-03T07:42:42;101010.34;;;7.87;100.00
30636;BME280;17400;52.392;9.750;2023-02-03T07:45:11;100986.78;;;7.89;100.00
30636;BME280;17400;52.392;9.750;2023-02-03T07:47:39;101006.28;;;7.91;100.00
30636;BME280;17400;52.392;9.750;2023-02-03T07:50:07;101017.44;;;7.88;100.00
30636;BME280;17400;52.392;9.750;2023-02-03T07:52:36;100998.75;;;7.86;100.00
30636;BME280;17400;52.392;9.750;2023-02-03T07:55:04;101000.94;;;7.82;100.00
30636;BME280;17400;52.392;9.750;2023-02-03T07:57:33;101023.00;;;7.78;100.00
30636;BME280;17400;52.392;9.750;2023-02-03T08:00:02;101006.50;;;7.81;100.00
30636;BME280;17400;52.392;9.750;2023-02-03T08:02:30;101005.31;;;7.83;100.00
30636;BME280;17400;52.392;9.750;2023-02-03T08:04:57;101015.41;;;7.81;100.00
30636;BME280;17400;52.392;9.750;2023-02-03T08:07:25;101002.28;;;7.78;100.00
30636;BME280;17400;52.392;9.750;2023-02-03T08:09:54;100984.94;;;7.81;100.00
30636;BME280;17400;52.392;9.750;2023-02-03T08:12:22;100994.84;;;7.80;100.00
30636;BME280;17400;52.392;9.750;2023-02-03T08:14:51;101008.50;;;7.79;100.00
30636;BME280;17400;52.392;9.750;2023-02-03T08:17:19;100999.25;;;7.81;100.00
30636;BME280;17400;52.392;9.750;2023-02-03T08:19:47;101007.31;;;7.81;100.00
30636;BME280;17400;52.392;9.750;2023-02-03T08:22:14;100985.75;;;7.81;100.00
30636;BME280;17400;52.392;9.750;2023-02-03T08:24:42;100990.47;;;7.88;100.00
30636;BME280;17400;52.392;9.750;2023-02-03T08:27:11;100991.66;;;7.85;100.00
30636;BME280;17400;52.392;9.750;2023-02-03T08:29:39;100987.78;;;7.88;100.00
30636;BME280;17400;52.392;9.750;2023-02-03T08:32:09;100987.97;;;7.86;100.00
30636;BME280;17400;52.392;9.750;2023-02-03T08:34:37;101010.53;;;7.85;100.00
30636;BME280;17400;52.392;9.750;2023-02-03T08:37:06;101001.25;;;7.88;100.00
30636;BME280;17400;52.392;9.750;2023-02-03T08:39:34;101007.16;;;7.91;100.00
30636;BME280;17400;52.392;9.750;2023-02-03T08:42:02;101013.53;;;7.98;100.00
30636;BME280;17400;52.392;9.750;2023-02-03T08:44:31;101007.97;;;8.00;100.00
30636;BME280;17400;52.392;9.750;2023-02-03T08:46:59;101007.63;;;7.95;100.00
30636;BME280;17400;52.392;9.750;2023-02-03T08:49:29;101004.25;;;8.01;100.00
30636;BME280;17400;52.392;9.750;2023-02-03T08:51:57;100999.53;;;8.03;100.00
30636;BME280;17400;52.392;9.750;2023-02-03T08:54:25;100997.50;;;8.05;100.00
30636;BME280;17400;52.392;9.750;2023-02-03T08:56:53;100999.53;;;8.03;100.00
30636;BME280;17400;52.392;9.750;2023-02-03T08:59:21;101005.25;;;8.00;100.00
30636;BME280;17400;52.392;9.750;2023-02-03T09:01:49;101000.03;;;7.98;100.00
30636;BME280;17400;52.392;9.750;2023-02-03T09:04:17;101016.53;;;8.04;100.00
30636;BME280;17400;52.392;9.750;2023-02-03T09:06:52;101015.03;;;8.01;100.00
30636;BME280;17400;52.392;9.750;2023-02-03T09:09:20;101015.72;;;8.03;100.00
30636;BME280;17400;52.392;9.750;2023-02-03T09:11:48;101009.28;;;8.04;100.00
30636;BME280;17400;52.392;9.750;2023-02-03T09:14:16;100998.34;;;8.06;100.00
30636;BME280;17400;52.392;9.750;2023-02-03T09:16:44;101010.31;;;8.03;100.00
30636;BME280;17400;52.392;9.750;2023-02-03T09:19:12;101022.28;;;8.09;100.00
30636;BME280;17400;52.392;9.750;2023-02-03T09:21:40;101035.22;;;8.13;100.00
30636;BME280;17400;52.392;9.750;2023-02-03T09:24:11;101022.22;;;8.17;100.00
30636;BME280;17400;52.392;9.750;2023-02-03T09:26:39;101003.72;;;8.14;100.00
30636;BME280;17400;52.392;9.750;2023-02-03T09:29:07;101008.94;;;8.15;100.00
30636;BME280;17400;52.392;9.750;2023-02-03T09:31:34;101012.97;;;8.20;100.00
30636;BME280;17400;52.392;9.750;2023-02-03T09:34:02;100996.78;;;8.20;100.00
30636;BME280;17400;52.392;9.750;2023-02-03T09:36:30;101005.38;;;8.23;100.00
30636;BME280;17400;52.392;9.750;2023-02-03T09:38:57;100990.38;;;8.21;100.00
30636;BME280;17400;52.392;9.750;2023-02-03T09:41:38;100969.44;;;8.23;100.00
30636;BME280;17400;52.392;9.750;2023-02-03T09:44:14;101002.84;;;8.22;100.00
30636;BME280;17400;52.392;9.750;2023-02-03T09:46:46;100987.13;;;8.25;100.00
30636;BME280;17400;52.392;9.750;2023-02-03T09:49:20;100998.78;;;8.26;100.00
30636;BME280;17400;52.392;9.750;2023-02-03T09:51:52;101005.69;;;8.20;100.00
30636;BME280;17400;52.392;9.750;2023-02-03T09:54:26;101013.97;;;8.18;100.00
30636;BME280;17400;52.392;9.750;2023-02-03T09:57:03;101022.22;;;8.17;100.00
30636;BME280;17400;52.392;9.750;2023-02-03T09:59:35;100997.13;;;8.16;100.00
30636;BME280;17400;52.392;9.750;2023-02-03T10:02:18;100986.34;;;8.16;100.00
30636;BME280;17400;52.392;9.750;2023-02-03T10:04:54;100992.06;;;8.22;100.00
30636;BME280;17400;52.392;9.750;2023-02-03T10:07:28;100987.81;;;8.27;100.00
30636;BME280;17400;52.392;9.750;2023-02-03T10:10:08;100986.31;;;8.25;100.00
30636;BME280;17400;52.392;9.750;2023-02-03T10:12:49;101011.09;;;8.20;100.00
30636;BME280;17400;52.392;9.750;2023-02-03T10:15:37;101010.94;;;8.22;100.00
30636;BME280;17400;52.392;9.750;2023-02-03T10:18:10;101011.94;;;8.21;100.00
30636;BME280;17400;52.392;9.750;2023-02-03T10:20:42;101015.31;;;8.14;100.00
30636;BME280;17400;52.392;9.750;2023-02-03T10:23:13;101022.06;;;8.18;100.00
30636;BME280;17400;52.392;9.750;2023-02-03T10:25:45;101036.53;;;8.17;100.00
30636;BME280;17400;52.392;9.750;2023-02-03T10:28:18;101026.44;;;8.20;100.00
30636;BME280;17400;52.392;9.750;2023-02-03T10:30:49;101050.53;;;8.21;100.00
30636;BME280;17400;52.392;9.750;2023-02-03T10:33:18;101035.34;;;8.20;100.00
30636;BME280;17400;52.392;9.750;2023-02-03T10:35:49;101043.81;;;8.17;100.00
30636;BME280;17400;52.392;9.750;2023-02-03T10:38:33;101053.91;;;8.23;100.00
30636;BME280;17400;52.392;9.750;2023-02-03T10:41:05;101052.84;;;8.41;100.00
30636;BME280;17400;52.392;9.750;2023-02-03T10:43:35;101067.50;;;8.46;100.00
30636;BME280;17400;52.392;9.750;2023-02-03T10:46:17;101049.13;;;8.50;100.00
30636;BME280;17400;52.392;9.750;2023-02-03T10:48:46;101055.34;;;8.50;100.00
30636;BME280;17400;52.392;9.750;2023-02-03T10:51:19;101056.91;;;8.37;100.00
30636;BME280;17400;52.392;9.750;2023-02-03T10:53:48;101060.25;;;8.39;100.00
30636;BME280;17400;52.392;9.750;2023-02-03T10:56:21;101065.81;;;8.37;100.00
30636;BME280;17400;52.392;9.750;2023-02-03T10:58:52;101056.41;;;8.33;100.00
30636;BME280;17400;52.392;9.750;2023-02-03T11:01:22;101065.31;;;8.42;100.00
30636;BME280;17400;52.392;9.750;2023-02-03T11:03:57;101068.19;;;8.48;100.00
30636;BME280;17400;52.392;9.750;2023-02-03T11:06:26;101073.22;;;8.52;100.00
30636;BME280;17400;52.392;9.750;2023-02-03T11:08:54;101086.38;;;8.55;100.00
30636;BME280;17400;52.392;9.750;2023-02-03T11:11:24;101082.31;;;8.59;100.00
30636;BME280;17400;52.392;9.750;2023-02-03T11:14:10;101092.44;;;8.57;100.00
30636;BME280;17400;52.392;9.750;2023-02-03T11:16:39;101089.03;;;8.63;100.00
30636;BME280;17400;52.392;9.750;2023-02-03T11:19:14;101074.88;;;8.61;100.00
30636;BME280;17400;52.392;9.750;2023-02-03T11:21:45;101094.44;;;8.63;100.00
30636;BME280;17400;52.392;9.750;2023-02-03T11:24:18;101095.78;;;8.67;100.00
30636;BME280;17400;52.392;9.750;2023-02-03T11:26:48;101098.66;;;8.57;100.00
30636;BME280;17400;52.392;9.750;2023-02-03T11:29:22;101099.53;;;8.58;100.00
30636;BME280;17400;52.392;9.750;2023-02-03T11:31:52;101098.50;;;8.59;100.00
30636;BME280;17400;52.392;9.750;2023-02-03T11:34:23;101103.22;;;8.57;100.00
30636;BME280;17400;52.392;9.750;2023-02-03T11:36:53;101114.19;;;8.55;100.00
30636;BME280;17400;52.392;9.750;2023-02-03T11:39:27;101103.72;;;8.60;100.00
30636;BME280;17400;52.392;9.750;2023-02-03T11:42:20;101098.19;;;8.54;100.00
30636;BME280;17400;52.392;9.750;2023-02-03T11:44:49;101098.34;;;8.60;100.00
30636;BME280;17400;52.392;9.750;2023-02-03T11:47:18;101101.50;;;8.72;100.00
30636;BME280;17400;52.392;9.750;2023-02-03T11:50:15;101104.31;;;8.79;100.00
30636;BME280;17400;52.392;9.750;2023-02-03T11:53:04;101101.31;;;8.74;100.00
30636;BME280;17400;52.392;9.750;2023-02-03T11:55:44;101106.63;;;8.90;100.00
30636;BME280;17400;52.392;9.750;2023-02-03T12:01:28;101116.34;;;9.08;100.00
30636;BME280;17400;52.392;9.750;2023-02-03T12:04:28;101116.84;;;9.03;100.00
30636;BME280;17400;52.392;9.750;2023-02-03T12:07:22;101108.09;;;9.01;100.00
30636;BME280;17400;52.392;9.750;2023-02-03T12:10:00;101115.88;;;8.96;100.00
30636;BME280;17400;52.392;9.750;2023-02-03T12:12:40;101119.78;;;8.93;100.00
30636;BME280;17400;52.392;9.750;2023-02-03T12:15:25;101124.00;;;8.96;100.00
30636;BME280;17400;52.392;9.750;2023-02-03T12:18:12;101124.31;;;8.93;100.00
30636;BME280;17400;52.392;9.750;2023-02-03T12:20:51;101129.41;;;8.96;100.00
30636;BME280;17400;52.392;9.750;2023-02-03T12:23:31;101128.91;;;8.92;100.00
30636;BME280;17400;52.392;9.750;2023-02-03T12:26:11;101131.72;;;8.99;100.00
30636;BME280;17400;52.392;9.750;2023-02-03T12:28:47;101137.44;;;9.04;100.00
30636;BME280;17400;52.392;9.750;2023-02-03T12:31:24;101150.28;;;9.02;100.00
30636;BME280;17400;52.392;9.750;2023-02-03T12:34:04;101135.44;;;9.06;100.00
30636;BME280;17400;52.392;9.750;2023-02-03T12:36:37;101130.81;;;9.15;100.00
30636;BME280;17400;52.392;9.750;2023-02-03T12:39:13;101143.59;;;9.21;100.00
30636;BME280;17400;52.392;9.750;2023-02-03T12:41:47;101129.25;;;9.21;100.00
30636;BME280;17400;52.392;9.750;2023-02-03T12:44:20;101152.72;;;9.20;100.00
30636;BME280;17400;52.392;9.750;2023-02-03T12:46:54;101147.31;;;9.20;100.00
30636;BME280;17400;52.392;9.750;2023-02-03T12:49:33;101147.13;;;9.22;100.00
30636;BME280;17400;52.392;9.750;2023-02-03T12:52:05;101145.28;;;9.22;100.00
30636;BME280;17400;52.392;9.750;2023-02-03T12:54:44;101150.34;;;9.25;100.00
30636;BME280;17400;52.392;9.750;2023-02-03T12:57:19;101147.44;;;9.27;100.00
30636;BME280;17400;52.392;9.750;2023-02-03T12:59:57;101146.06;;;9.31;100.00
30636;BME280;17400;52.392;9.750;2023-02-03T13:02:29;101144.38;;;9.30;100.00
30636;BME280;17400;52.392;9.750;2023-02-03T13:05:04;101154.34;;;9.29;100.00
30636;BME280;17400;52.392;9.750;2023-02-03T13:07:38;101145.75;;;9.34;100.00
30636;BME280;17400;52.392;9.750;2023-02-03T13:10:15;101154.47;;;9.36;100.00
30636;BME280;17400;52.392;9.750;2023-02-03T13:12:50;101158.00;;;9.37;100.00
30636;BME280;17400;52.392;9.750;2023-02-03T13:15:24;101160.72;;;9.37;100.00
30636;BME280;17400;52.392;9.750;2023-02-03T13:17:57;101171.72;;;9.35;100.00